sensor_id;sensor_type;location;lat;lon;timestamp;temperature;humidity
51175;DHT22;37240;50.104;20.010;2024-02-26T00:04:43;12.60;86.80
51175;DHT22;37240;50.104;20.010;2024-02-26T00:09:43;12.60;87.60
51175;DHT22;37240;50.104;20.010;2024-02-26T00:14:44;12.50;87.60
51175;DHT22;37240;50.104;20.010;2024-02-26T00:19:44;12.40;87.80
51175;DHT22;37240;50.104;20.010;2024-02-26T00:24:45;12.40;88.00
51175;DHT22;37240;50.104;20.010;2024-02-26T00:29:45;12.30;88.10
51175;DHT22;37240;50.104;20.010;2024-02-26T00:34:46;12.30;88.40
51175;DHT22;37240;50.104;20.010;2024-02-26T00:39:47;12.20;89.50
51175;DHT22;37240;50.104;20.010;2024-02-26T00:44:47;12.20;90.00
51175;DHT22;37240;50.104;20.010;2024-02-26T00:49:48;12.20;90.20
51175;DHT22;37240;50.104;20.010;2024-02-26T00:54:48;12.10;90.80
51175;DHT22;37240;50.104;20.010;2024-02-26T00:59:49;11.90;91.10
51175;DHT22;37240;50.104;20.010;2024-02-26T01:04:49;12.00;91.70
51175;DHT22;37240;50.104;20.010;2024-02-26T01:09:50;11.90;91.90
51175;DHT22;37240;50.104;20.010;2024-02-26T01:14:50;11.90;92.20
51175;DHT22;37240;50.104;20.010;2024-02-26T01:19:51;11.80;92.50
51175;DHT22;37240;50.104;20.010;2024-02-26T01:24:51;11.80;92.90
51175;DHT22;37240;50.104;20.010;2024-02-26T01:29:52;11.70;93.10
51175;DHT22;37240;50.104;20.010;2024-02-26T01:34:53;11.70;93.50
51175;DHT22;37240;50.104;20.010;2024-02-26T01:39:53;11.60;93.30
51175;DHT22;37240;50.104;20.010;2024-02-26T01:44:54;11.60;93.50
51175;DHT22;37240;50.104;20.010;2024-02-26T01:49:54;11.60;93.60
51175;DHT22;37240;50.104;20.010;2024-02-26T01:54:55;11.50;93.70
51175;DHT22;37240;50.104;20.010;2024-02-26T01:59:56;11.50;93.80
51175;DHT22;37240;50.104;20.010;2024-02-26T02:04:56;11.40;93.70
51175;DHT22;37240;50.104;20.010;2024-02-26T02:09:57;11.30;94.10
51175;DHT22;37240;50.104;20.010;2024-02-26T02:14:58;11.20;94.50
51175;DHT22;37240;50.104;20.010;2024-02-26T02:19:59;11.20;94.10
51175;DHT22;37240;50.104;20.010;2024-02-26T02:24:59;11.00;94.60
51175;DHT22;37240;50.104;20.010;2024-02-26T02:30:00;10.90;94.80
51175;DHT22;37240;50.104;20.010;2024-02-26T02:35:01;10.90;95.10
51175;DHT22;37240;50.104;20.010;2024-02-26T02:40:02;10.90;95.30
51175;DHT22;37240;50.104;20.010;2024-02-26T02:45:03;10.90;95.30
51175;DHT22;37240;50.104;20.010;2024-02-26T02:50:04;10.90;95.30
51175;DHT22;37240;50.104;20.010;2024-02-26T02:55:04;10.90;95.30
51175;DHT22;37240;50.104;20.010;2024-02-26T03:00:07;10.80;95.40
51175;DHT22;37240;50.104;20.010;2024-02-26T03:05:08;10.90;95.40
51175;DHT22;37240;50.104;20.010;2024-02-26T03:10:09;10.80;95.40
51175;DHT22;37240;50.104;20.010;2024-02-26T03:15:09;10.90;96.00
51175;DHT22;37240;50.104;20.010;2024-02-26T03:20:10;10.80;95.60
51175;DHT22;37240;50.104;20.010;2024-02-26T03:25:11;10.80;95.50
51175;DHT22;37240;50.104;20.010;2024-02-26T03:30:11;10.70;95.40
51175;DHT22;37240;50.104;20.010;2024-02-26T03:35:12;10.60;95.40
51175;DHT22;37240;50.104;20.010;2024-02-26T03:40:13;10.50;95.60
51175;DHT22;37240;50.104;20.010;2024-02-26T03:45:14;10.50;95.70
51175;DHT22;37240;50.104;20.010;2024-02-26T03:50:14;10.40;95.00
51175;DHT22;37240;50.104;20.010;2024-02-26T03:55:15;10.20;95.30
51175;DHT22;37240;50.104;20.010;2024-02-26T04:00:16;10.20;95.70
51175;DHT22;37240;50.104;20.010;2024-02-26T04:05:16;10.20;95.80
51175;DHT22;37240;50.104;20.010;2024-02-26T04:10:17;10.20;95.80
51175;DHT22;37240;50.104;20.010;2024-02-26T04:15:17;10.20;95.90
51175;DHT22;37240;50.104;20.010;2024-02-26T04:20:18;10.10;96.10
51175;DHT22;37240;50.104;20.010;2024-02-26T04:25:19;10.00;95.70
51175;DHT22;37240;50.104;20.010;2024-02-26T04:30:19;9.90;95.10
51175;DHT22;37240;50.104;20.010;2024-02-26T04:35:20;9.70;95.40
51175;DHT22;37240;50.104;20.010;2024-02-26T04:40:20;9.50;96.00
51175;DHT22;37240;50.104;20.010;2024-02-26T04:45:21;9.50;96.50
51175;DHT22;37240;50.104;20.010;2024-02-26T04:50:21;9.60;97.00
51175;DHT22;37240;50.104;20.010;2024-02-26T04:55:22;9.70;96.80
51175;DHT22;37240;50.104;20.010;2024-02-26T05:00:22;9.60;96.70
51175;DHT22;37240;50.104;20.010;2024-02-26T05:05:23;9.50;96.20
51175;DHT22;37240;50.104;20.010;2024-02-26T05:10:23;9.40;96.80
51175;DHT22;37240;50.104;20.010;2024-02-26T05:15:24;9.40;97.50
51175;DHT22;37240;50.104;20.010;2024-02-26T05:20:25;9.40;97.40
51175;DHT22;37240;50.104;20.010;2024-02-26T05:25:25;9.30;97.40
51175;DHT22;37240;50.104;20.010;2024-02-26T05:30:26;9.30;97.40
51175;DHT22;37240;50.104;20.010;2024-02-26T05:35:26;9.20;97.60
51175;DHT22;37240;50.104;20.010;2024-02-26T05:40:27;9.20;97.80
51175;DHT22;37240;50.104;20.010;2024-02-26T05:45:27;9.20;97.80
51175;DHT22;37240;50.104;20.010;2024-02-26T05:50:28;9.30;97.80
51175;DHT22;37240;50.104;20.010;2024-02-26T05:55:28;9.20;97.50
51175;DHT22;37240;50.104;20.010;2024-02-26T06:00:29;9.30;97.70
51175;DHT22;37240;50.104;20.010;2024-02-26T06:05:29;9.40;97.90
51175;DHT22;37240;50.104;20.010;2024-02-26T06:10:30;9.30;98.00
51175;DHT22;37240;50.104;20.010;2024-02-26T06:15:31;9.30;98.50
51175;DHT22;37240;50.104;20.010;2024-02-26T06:20:31;9.40;98.30
51175;DHT22;37240;50.104;20.010;2024-02-26T06:25:32;9.40;97.90
51175;DHT22;37240;50.104;20.010;2024-02-26T06:30:32;9.60;97.90
51175;DHT22;37240;50.104;20.010;2024-02-26T06:35:33;9.60;97.40
51175;DHT22;37240;50.104;20.010;2024-02-26T06:40:33;9.70;97.50
51175;DHT22;37240;50.104;20.010;2024-02-26T06:45:34;9.70;97.50
51175;DHT22;37240;50.104;20.010;2024-02-26T06:50:34;9.80;98.00
51175;DHT22;37240;50.104;20.010;2024-02-26T06:55:35;10.00;97.60
51175;DHT22;37240;50.104;20.010;2024-02-26T07:00:35;10.10;97.40
51175;DHT22;37240;50.104;20.010;2024-02-26T07:05:36;10.20;97.50
51175;DHT22;37240;50.104;20.010;2024-02-26T07:10:36;10.30;97.30
51175;DHT22;37240;50.104;20.010;2024-02-26T07:15:37;10.30;97.40
51175;DHT22;37240;50.104;20.010;2024-02-26T07:20:37;10.40;97.40
51175;DHT22;37240;50.104;20.010;2024-02-26T07:25:38;10.60;97.20
51175;DHT22;37240;50.104;20.010;2024-02-26T07:30:39;10.80;97.00
51175;DHT22;37240;50.104;20.010;2024-02-26T07:35:39;11.00;96.90
51175;DHT22;37240;50.104;20.010;2024-02-26T07:40:40;11.60;96.80
51175;DHT22;37240;50.104;20.010;2024-02-26T07:45:40;12.00;95.50
51175;DHT22;37240;50.104;20.010;2024-02-26T07:50:41;12.00;94.80
51175;DHT22;37240;50.104;20.010;2024-02-26T07:55:41;12.10;94.70
51175;DHT22;37240;50.104;20.010;2024-02-26T08:00:42;12.20;94.10
51175;DHT22;37240;50.104;20.010;2024-02-26T08:05:43;12.10;94.60
51175;DHT22;37240;50.104;20.010;2024-02-26T08:10:43;12.00;95.30
51175;DHT22;37240;50.104;20.010;2024-02-26T08:15:44;11.90;96.20
51175;DHT22;37240;50.104;20.010;2024-02-26T08:20:44;11.90;96.80
51175;DHT22;37240;50.104;20.010;2024-02-26T08:25:45;12.10;97.10
51175;DHT22;37240;50.104;20.010;2024-02-26T08:30:45;12.30;97.20
51175;DHT22;37240;50.104;20.010;2024-02-26T08:35:46;12.50;97.10
51175;DHT22;37240;50.104;20.010;2024-02-26T08:40:47;12.50;97.10
51175;DHT22;37240;50.104;20.010;2024-02-26T08:45:47;12.80;97.30
51175;DHT22;37240;50.104;20.010;2024-02-26T08:50:48;13.30;96.80
51175;DHT22;37240;50.104;20.010;2024-02-26T08:55:48;13.40;96.20
51175;DHT22;37240;50.104;20.010;2024-02-26T09:00:49;13.60;96.20
51175;DHT22;37240;50.104;20.010;2024-02-26T09:05:49;13.80;96.10
51175;DHT22;37240;50.104;20.010;2024-02-26T09:10:50;13.90;96.10
51175;DHT22;37240;50.104;20.010;2024-02-26T09:15:51;14.10;95.60
51175;DHT22;37240;50.104;20.010;2024-02-26T09:20:51;14.00;95.80
51175;DHT22;37240;50.104;20.010;2024-02-26T09:25:52;13.90;96.10
51175;DHT22;37240;50.104;20.010;2024-02-26T09:30:52;14.00;96.20
51175;DHT22;37240;50.104;20.010;2024-02-26T09:35:54;14.00;96.10
51175;DHT22;37240;50.104;20.010;2024-02-26T09:40:55;14.00;95.90
51175;DHT22;37240;50.104;20.010;2024-02-26T09:45:57;14.20;95.70
51175;DHT22;37240;50.104;20.010;2024-02-26T09:50:57;14.40;95.40
51175;DHT22;37240;50.104;20.010;2024-02-26T09:55:58;14.60;94.80
51175;DHT22;37240;50.104;20.010;2024-02-26T10:01:00;14.60;94.60
51175;DHT22;37240;50.104;20.010;2024-02-26T10:06:02;14.70;94.70
51175;DHT22;37240;50.104;20.010;2024-02-26T10:11:05;14.70;95.00
51175;DHT22;37240;50.104;20.010;2024-02-26T10:16:07;14.90;95.10
51175;DHT22;37240;50.104;20.010;2024-02-26T10:21:07;15.10;94.90
51175;DHT22;37240;50.104;20.010;2024-02-26T10:26:10;15.40;94.20
51175;DHT22;37240;50.104;20.010;2024-02-26T10:31:14;15.70;93.20
51175;DHT22;37240;50.104;20.010;2024-02-26T10:36:14;15.80;92.50
51175;DHT22;37240;50.104;20.010;2024-02-26T10:41:15;16.10;92.00
51175;DHT22;37240;50.104;20.010;2024-02-26T10:46:16;16.30;91.00
51175;DHT22;37240;50.104;20.010;2024-02-26T10:51:22;16.50;90.60
51175;DHT22;37240;50.104;20.010;2024-02-26T10:56:27;16.60;90.40
51175;DHT22;37240;50.104;20.010;2024-02-26T11:01:28;16.80;88.70
51175;DHT22;37240;50.104;20.010;2024-02-26T11:06:29;16.90;87.00
51175;DHT22;37240;50.104;20.010;2024-02-26T11:11:32;17.00;85.10
51175;DHT22;37240;50.104;20.010;2024-02-26T11:16:35;17.20;85.60
51175;DHT22;37240;50.104;20.010;2024-02-26T11:21:35;17.20;84.60
51175;DHT22;37240;50.104;20.010;2024-02-26T11:31:45;16.90;83.90
51175;DHT22;37240;50.104;20.010;2024-02-26T11:36:48;16.90;85.00
51175;DHT22;37240;50.104;20.010;2024-02-26T11:41:50;16.90;84.80
51175;DHT22;37240;50.104;20.010;2024-02-26T11:46:51;16.90;84.00
51175;DHT22;37240;50.104;20.010;2024-02-26T11:51:52;17.10;84.50
51175;DHT22;37240;50.104;20.010;2024-02-26T11:56:54;17.50;83.30
51175;DHT22;37240;50.104;20.010;2024-02-26T12:01:54;17.60;81.50
51175;DHT22;37240;50.104;20.010;2024-02-26T12:06:56;17.60;79.50
51175;DHT22;37240;50.104;20.010;2024-02-26T12:11:57;17.60;80.70
51175;DHT22;37240;50.104;20.010;2024-02-26T12:16:58;17.80;80.20
51175;DHT22;37240;50.104;20.010;2024-02-26T12:21:59;17.90;79.80
51175;DHT22;37240;50.104;20.010;2024-02-26T12:26:59;18.00;79.50
51175;DHT22;37240;50.104;20.010;2024-02-26T12:32:01;18.00;77.70
51175;DHT22;37240;50.104;20.010;2024-02-26T12:37:02;18.00;78.50
51175;DHT22;37240;50.104;20.010;2024-02-26T12:42:03;18.00;77.50
51175;DHT22;37240;50.104;20.010;2024-02-26T12:47:04;18.00;77.80
51175;DHT22;37240;50.104;20.010;2024-02-26T12:52:05;18.10;76.10
51175;DHT22;37240;50.104;20.010;2024-02-26T12:57:06;18.20;75.70
51175;DHT22;37240;50.104;20.010;2024-02-26T13:02:08;18.20;75.10
51175;DHT22;37240;50.104;20.010;2024-02-26T13:07:09;18.10;75.40
51175;DHT22;37240;50.104;20.010;2024-02-26T13:12:10;17.90;76.40
51175;DHT22;37240;50.104;20.010;2024-02-26T13:17:12;18.10;76.60
51175;DHT22;37240;50.104;20.010;2024-02-26T13:22:12;18.10;76.50
51175;DHT22;37240;50.104;20.010;2024-02-26T13:27:13;18.10;77.70
51175;DHT22;37240;50.104;20.010;2024-02-26T13:32:21;18.00;77.60
51175;DHT22;37240;50.104;20.010;2024-02-26T13:37:21;18.10;77.60
51175;DHT22;37240;50.104;20.010;2024-02-26T13:42:22;18.00;78.30
51175;DHT22;37240;50.104;20.010;2024-02-26T13:47:22;18.00;78.80
51175;DHT22;37240;50.104;20.010;2024-02-26T13:52:23;18.00;79.00
51175;DHT22;37240;50.104;20.010;2024-02-26T13:57:23;17.80;78.90
51175;DHT22;37240;50.104;20.010;2024-02-26T14:02:24;17.80;79.10
51175;DHT22;37240;50.104;20.010;2024-02-26T14:07:25;17.70;79.50
51175;DHT22;37240;50.104;20.010;2024-02-26T14:12:25;17.80;80.00
51175;DHT22;37240;50.104;20.010;2024-02-26T14:17:26;17.80;80.20
51175;DHT22;37240;50.104;20.010;2024-02-26T14:22:27;17.90;80.60
51175;DHT22;37240;50.104;20.010;2024-02-26T14:27:27;17.80;80.60
51175;DHT22;37240;50.104;20.010;2024-02-26T14:32:28;17.70;80.60
51175;DHT22;37240;50.104;20.010;2024-02-26T14:37:29;17.60;81.00
51175;DHT22;37240;50.104;20.010;2024-02-26T14:42:29;17.40;81.50
51175;DHT22;37240;50.104;20.010;2024-02-26T14:47:30;17.50;81.70
51175;DHT22;37240;50.104;20.010;2024-02-26T14:52:31;17.40;82.10
51175;DHT22;37240;50.104;20.010;2024-02-26T14:57:32;17.30;82.90
51175;DHT22;37240;50.104;20.010;2024-02-26T15:02:32;17.30;82.90
51175;DHT22;37240;50.104;20.010;2024-02-26T15:07:33;17.20;83.10
51175;DHT22;37240;50.104;20.010;2024-02-26T15:12:33;17.30;83.60
51175;DHT22;37240;50.104;20.010;2024-02-26T15:17:34;17.20;83.80
51175;DHT22;37240;50.104;20.010;2024-02-26T15:22:34;17.20;84.50
51175;DHT22;37240;50.104;20.010;2024-02-26T15:27:36;17.20;84.60
51175;DHT22;37240;50.104;20.010;2024-02-26T15:32:37;17.00;84.90
51175;DHT22;37240;50.104;20.010;2024-02-26T15:37:37;17.00;85.50
51175;DHT22;37240;50.104;20.010;2024-02-26T15:42:38;16.90;86.10
51175;DHT22;37240;50.104;20.010;2024-02-26T15:47:40;16.90;86.50
51175;DHT22;37240;50.104;20.010;2024-02-26T15:52:41;16.80;87.20
51175;DHT22;37240;50.104;20.010;2024-02-26T15:57:41;16.70;87.60
51175;DHT22;37240;50.104;20.010;2024-02-26T16:02:42;16.60;88.10
51175;DHT22;37240;50.104;20.010;2024-02-26T16:07:55;16.50;89.10
51175;DHT22;37240;50.104;20.010;2024-02-26T16:12:59;16.40;89.50
51175;DHT22;37240;50.104;20.010;2024-02-26T16:18:00;16.40;89.90
51175;DHT22;37240;50.104;20.010;2024-02-26T16:23:01;16.30;90.10
51175;DHT22;37240;50.104;20.010;2024-02-26T16:28:01;16.30;90.20
51175;DHT22;37240;50.104;20.010;2024-02-26T16:33:02;16.10;90.50
51175;DHT22;37240;50.104;20.010;2024-02-26T16:38:03;16.10;90.80
51175;DHT22;37240;50.104;20.010;2024-02-26T16:43:03;16.00;91.00
51175;DHT22;37240;50.104;20.010;2024-02-26T16:48:04;16.00;90.90
51175;DHT22;37240;50.104;20.010;2024-02-26T16:53:05;15.90;90.90
51175;DHT22;37240;50.104;20.010;2024-02-26T16:58:05;15.90;91.00
51175;DHT22;37240;50.104;20.010;2024-02-26T17:03:06;15.90;91.00
51175;DHT22;37240;50.104;20.010;2024-02-26T17:08:06;15.90;91.20
51175;DHT22;37240;50.104;20.010;2024-02-26T17:13:07;15.80;91.30
51175;DHT22;37240;50.104;20.010;2024-02-26T17:18:07;15.60;91.50
51175;DHT22;37240;50.104;20.010;2024-02-26T17:23:08;15.60;91.80
51175;DHT22;37240;50.104;20.010;2024-02-26T17:28:08;15.60;91.90
51175;DHT22;37240;50.104;20.010;2024-02-26T17:33:09;15.40;92.10
51175;DHT22;37240;50.104;20.010;2024-02-26T17:38:10;15.30;92.20
51175;DHT22;37240;50.104;20.010;2024-02-26T17:43:10;15.30;92.40
51175;DHT22;37240;50.104;20.010;2024-02-26T17:48:11;15.20;92.40
51175;DHT22;37240;50.104;20.010;2024-02-26T17:53:12;15.20;92.50
51175;DHT22;37240;50.104;20.010;2024-02-26T17:58:13;15.20;92.60
51175;DHT22;37240;50.104;20.010;2024-02-26T18:03:14;15.10;92.90
51175;DHT22;37240;50.104;20.010;2024-02-26T18:08:15;15.10;92.90
51175;DHT22;37240;50.104;20.010;2024-02-26T18:13:16;15.10;92.90
51175;DHT22;37240;50.104;20.010;2024-02-26T18:18:16;15.20;92.80
51175;DHT22;37240;50.104;20.010;2024-02-26T18:23:17;15.10;92.90
51175;DHT22;37240;50.104;20.010;2024-02-26T18:28:17;15.10;92.90
51175;DHT22;37240;50.104;20.010;2024-02-26T18:33:18;15.10;93.10
51175;DHT22;37240;50.104;20.010;2024-02-26T18:38:18;15.10;93.00
51175;DHT22;37240;50.104;20.010;2024-02-26T18:43:19;15.10;93.00
51175;DHT22;37240;50.104;20.010;2024-02-26T18:48:20;15.00;93.20
51175;DHT22;37240;50.104;20.010;2024-02-26T18:53:26;14.90;93.40
51175;DHT22;37240;50.104;20.010;2024-02-26T18:58:27;14.90;93.70
51175;DHT22;37240;50.104;20.010;2024-02-26T19:03:31;14.80;93.90
51175;DHT22;37240;50.104;20.010;2024-02-26T19:08:31;14.80;93.90
51175;DHT22;37240;50.104;20.010;2024-02-26T19:13:33;14.70;94.20
51175;DHT22;37240;50.104;20.010;2024-02-26T19:18:34;14.60;94.60
51175;DHT22;37240;50.104;20.010;2024-02-26T19:23:35;14.50;94.80
51175;DHT22;37240;50.104;20.010;2024-02-26T19:28:35;14.40;94.90
51175;DHT22;37240;50.104;20.010;2024-02-26T19:33:36;14.40;95.00
51175;DHT22;37240;50.104;20.010;2024-02-26T19:38:36;14.40;95.20
51175;DHT22;37240;50.104;20.010;2024-02-26T19:43:37;14.30;95.30
51175;DHT22;37240;50.104;20.010;2024-02-26T19:48:37;14.40;95.30
51175;DHT22;37240;50.104;20.010;2024-02-26T19:53:39;14.40;95.40
51175;DHT22;37240;50.104;20.010;2024-02-26T19:58:39;14.40;95.40
51175;DHT22;37240;50.104;20.010;2024-02-26T20:03:40;14.40;95.50
51175;DHT22;37240;50.104;20.010;2024-02-26T20:08:40;14.30;95.60
51175;DHT22;37240;50.104;20.010;2024-02-26T20:13:41;14.30;95.60
51175;DHT22;37240;50.104;20.010;2024-02-26T20:18:41;14.40;95.60
51175;DHT22;37240;50.104;20.010;2024-02-26T20:23:42;14.40;96.00
51175;DHT22;37240;50.104;20.010;2024-02-26T20:28:43;14.20;95.80
51175;DHT22;37240;50.104;20.010;2024-02-26T20:33:43;14.20;96.00
51175;DHT22;37240;50.104;20.010;2024-02-26T20:38:44;14.20;96.00
51175;DHT22;37240;50.104;20.010;2024-02-26T20:43:47;14.20;96.10
51175;DHT22;37240;50.104;20.010;2024-02-26T20:48:48;14.00;96.20
51175;DHT22;37240;50.104;20.010;2024-02-26T20:53:49;14.00;96.30
51175;DHT22;37240;50.104;20.010;2024-02-26T20:58:49;13.90;96.40
51175;DHT22;37240;50.104;20.010;2024-02-26T21:03:50;13.80;96.60
51175;DHT22;37240;50.104;20.010;2024-02-26T21:08:50;13.80;96.70
51175;DHT22;37240;50.104;20.010;2024-02-26T21:13:51;13.80;96.80
51175;DHT22;37240;50.104;20.010;2024-02-26T21:18:51;13.80;96.80
51175;DHT22;37240;50.104;20.010;2024-02-26T21:23:52;13.80;96.90
51175;DHT22;37240;50.104;20.010;2024-02-26T21:28:52;13.70;97.00
51175;DHT22;37240;50.104;20.010;2024-02-26T21:33:53;13.60;97.20
51175;DHT22;37240;50.104;20.010;2024-02-26T21:38:54;13.60;97.20
51175;DHT22;37240;50.104;20.010;2024-02-26T21:43:54;13.60;97.20
51175;DHT22;37240;50.104;20.010;2024-02-26T21:48:55;13.60;97.30
51175;DHT22;37240;50.104;20.010;2024-02-26T21:53:55;13.60;97.40
51175;DHT22;37240;50.104;20.010;2024-02-26T21:58:56;13.60;97.40
51175;DHT22;37240;50.104;20.010;2024-02-26T22:03:56;13.50;97.60
51175;DHT22;37240;50.104;20.010;2024-02-26T22:08:58;13.50;97.50
51175;DHT22;37240;50.104;20.010;2024-02-26T22:13:59;13.50;97.40
51175;DHT22;37240;50.104;20.010;2024-02-26T22:19:00;13.40;97.40
51175;DHT22;37240;50.104;20.010;2024-02-26T22:24:01;13.20;98.10
51175;DHT22;37240;50.104;20.010;2024-02-26T22:29:02;13.30;98.10
51175;DHT22;37240;50.104;20.010;2024-02-26T22:34:02;13.00;98.50
51175;DHT22;37240;50.104;20.010;2024-02-26T22:39:03;12.90;98.90
51175;DHT22;37240;50.104;20.010;2024-02-26T22:44:04;12.80;99.30
51175;DHT22;37240;50.104;20.010;2024-02-26T22:49:06;12.80;99.30
51175;DHT22;37240;50.104;20.010;2024-02-26T22:54:07;12.70;99.70
51175;DHT22;37240;50.104;20.010;2024-02-26T22:59:07;12.70;99.90
51175;DHT22;37240;50.104;20.010;2024-02-26T23:04:08;12.60;99.90
51175;DHT22;37240;50.104;20.010;2024-02-26T23:09:08;12.70;99.90
51175;DHT22;37240;50.104;20.010;2024-02-26T23:14:09;12.60;99.90
51175;DHT22;37240;50.104;20.010;2024-02-26T23:19:10;12.60;99.90
51175;DHT22;37240;50.104;20.010;2024-02-26T23:24:10;12.60;99.80
51175;DHT22;37240;50.104;20.010;2024-02-26T23:29:11;12.60;99.90
51175;DHT22;37240;50.104;20.010;2024-02-26T23:34:11;12.60;99.90
51175;DHT22;37240;50.104;20.010;2024-02-26T23:39:12;12.60;99.90
51175;DHT22;37240;50.104;20.010;2024-02-26T23:44:13;12.70;99.90
51175;DHT22;37240;50.104;20.010;2024-02-26T23:49:14;12.60;99.90
51175;DHT22;37240;50.104;20.010;2024-02-26T23:54:14;12.60;99.90
51175;DHT22;37240;50.104;20.010;2024-02-26T23:59:15;12.60;99.90
